Time;durP1;ratioP1;P1;durP2;ratioP2;P2;SDS_P1;SDS_P2;PMS_P1;PMS_P2;Temp;Humidity;BMP_temperature;BMP_pressure;BME280_temperature;BME280_humidity;BME280_pressure;Samples;Min_cycle;Max_cycle;Signal;HPM_P1;HPM_P2
2021/09/08 00:00:33;;;;;;;11.80;9.77;;;;;;;14.55;66.09;96004.31;6127496;23;20221;-84
2021/09/08 00:03:00;;;;;;;13.25;10.77;;;;;;;14.57;66.30;95999.72;6150480;23;20155;-83
2021/09/08 00:05:25;;;;;;;14.98;10.02;;;;;;;14.54;66.29;95997.44;6151606;23;20175;-83
2021/09/08 00:07:50;;;;;;;12.70;10.55;;;;;;;14.53;66.66;95992.41;6128011;23;20190;-84
2021/09/08 00:10:16;;;;;;;11.48;9.18;;;;;;;14.52;66.88;95993.38;6127989;23;20566;-84
2021/09/08 00:12:41;;;;;;;11.65;9.77;;;;;;;14.52;66.99;95982.91;6127835;23;20194;-84
2021/09/08 00:15:09;;;;;;;12.10;10.45;;;;;;;14.54;66.77;95991.41;6127319;23;20178;-83
2021/09/08 00:17:34;;;;;;;11.45;10.25;;;;;;;14.44;67.08;95984.50;6127270;23;20155;-83
2021/09/08 00:20:00;;;;;;;13.18;10.55;;;;;;;14.38;67.42;95979.09;6151593;23;20241;-84
2021/09/08 00:22:25;;;;;;;11.45;10.23;;;;;;;14.37;67.46;95986.13;6152295;23;20621;-83
2021/09/08 00:24:50;;;;;;;11.75;10.55;;;;;;;14.36;67.61;95976.66;6127578;23;20523;-84
2021/09/08 00:27:16;;;;;;;13.00;10.60;;;;;;;14.48;67.16;95978.97;6127133;23;20508;-83
2021/09/08 00:29:41;;;;;;;13.00;11.25;;;;;;;14.35;67.53;95969.78;6127149;23;20478;-84
2021/09/08 00:32:07;;;;;;;12.52;10.63;;;;;;;14.33;67.38;95976.97;6127408;23;20159;-83
2021/09/08 00:34:32;;;;;;;15.13;11.15;;;;;;;14.39;67.25;95965.88;6126118;23;20179;-83
2021/09/08 00:36:57;;;;;;;10.63;9.53;;;;;;;14.39;67.47;95968.47;6151793;23;20159;-83
2021/09/08 00:39:23;;;;;;;12.75;10.27;;;;;;;14.48;67.09;95965.91;6126858;23;20265;-83
2021/09/08 00:41:48;;;;;;;12.53;10.93;;;;;;;14.40;67.38;95964.91;6151774;23;20186;-83
2021/09/08 00:44:14;;;;;;;14.43;9.85;;;;;;;14.45;67.12;95961.84;6150974;23;20181;-83
2021/09/08 00:46:44;;;;;;;11.35;10.18;;;;;;;14.49;67.08;95957.94;6126801;23;20162;-83
2021/09/08 00:49:10;;;;;;;12.30;10.52;;;;;;;14.43;67.13;95963.78;6126928;23;20155;-83
2021/09/08 00:51:36;;;;;;;11.95;10.60;;;;;;;14.41;67.04;95966.53;6129016;23;20159;-83
2021/09/08 00:54:04;;;;;;;11.43;10.13;;;;;;;14.35;67.37;95954.13;6127970;23;20158;-83
2021/09/08 00:56:30;;;;;;;11.70;10.43;;;;;;;14.38;67.62;95956.41;6153426;23;20143;-83
2021/09/08 00:58:55;;;;;;;12.43;10.38;;;;;;;14.24;67.60;95953.63;6129053;23;20493;-83
2021/09/08 01:01:21;;;;;;;11.85;10.00;;;;;;;14.24;67.79;95957.03;6127268;23;20501;-84
2021/09/08 01:03:47;;;;;;;10.60;9.50;;;;;;;14.23;68.30;95954.59;6127961;23;20166;-83
2021/09/08 01:06:12;;;;;;;12.13;10.13;;;;;;;14.21;67.97;95948.69;6153679;23;20182;-83
2021/09/08 01:08:38;;;;;;;12.27;10.03;;;;;;;14.14;68.15;95959.78;6153981;23;20615;-83
2021/09/08 01:11:05;;;;;;;13.70;10.90;;;;;;;14.08;67.86;95944.75;6128974;23;20550;-84
2021/09/08 01:13:30;;;;;;;11.02;9.93;;;;;;;14.02;68.21;95947.19;6129031;23;20163;-84
2021/09/08 01:16:01;;;;;;;11.93;10.70;;;;;;;14.06;68.53;95948.50;6153396;23;20641;-84
2021/09/08 01:18:28;;;;;;;12.00;10.73;;;;;;;14.07;68.36;95942.31;6131079;23;20164;-83
2021/09/08 01:20:53;;;;;;;12.10;10.80;;;;;;;14.05;68.03;95944.28;6131751;23;20186;-84
2021/09/08 01:23:19;;;;;;;11.97;10.77;;;;;;;14.07;68.41;95940.50;6129867;23;20260;-83
2021/09/08 01:25:44;;;;;;;12.90;11.02;;;;;;;14.02;68.78;95934.13;6153672;23;20528;-83
2021/09/08 01:28:09;;;;;;;13.25;11.25;;;;;;;13.97;68.73;95939.03;6154518;23;20155;-84
2021/09/08 01:30:34;;;;;;;14.80;11.20;;;;;;;13.96;68.94;95938.22;6130083;23;20158;-83
2021/09/08 01:33:01;;;;;;;12.38;11.00;;;;;;;13.88;69.00;95944.22;6129653;23;20155;-83
2021/09/08 01:35:27;;;;;;;12.20;10.27;;;;;;;14.02;68.78;95939.34;6128986;23;20183;-83
2021/09/08 01:37:52;;;;;;;14.27;11.17;;;;;;;13.94;68.83;95932.31;6129228;23;20889;-83
2021/09/08 01:40:18;;;;;;;14.40;11.47;;;;;;;13.95;68.92;95938.34;6129388;23;20182;-84
2021/09/08 01:42:45;;;;;;;12.20;10.90;;;;;;;13.91;68.79;95931.81;6129634;23;20170;-83
2021/09/08 01:45:12;;;;;;;13.30;10.50;;;;;;;13.90;68.92;95925.78;6152879;23;20183;-83
2021/09/08 01:47:38;;;;;;;14.70;11.10;;;;;;;13.91;68.84;95929.19;6153839;23;20230;-83
2021/09/08 01:50:03;;;;;;;13.15;11.38;;;;;;;13.92;68.59;95925.63;6153970;23;20470;-84
2021/09/08 01:52:28;;;;;;;13.13;11.30;;;;;;;13.87;68.98;95932.13;6104358;23;20170;-83
2021/09/08 01:54:54;;;;;;;12.23;11.02;;;;;;;13.89;68.77;95924.97;6127668;23;20203;-83
2021/09/08 01:57:19;;;;;;;12.23;10.83;;;;;;;13.84;68.90;95924.59;6153337;23;20148;-83
2021/09/08 01:59:44;;;;;;;11.63;10.43;;;;;;;13.85;68.93;95923.63;6153280;23;20636;-84
2021/09/08 02:02:09;;;;;;;13.83;10.67;;;;;;;13.90;68.62;95925.78;6126792;23;20620;-83
2021/09/08 02:04:35;;;;;;;13.10;11.57;;;;;;;13.84;68.85;95922.00;6127908;23;20183;-83
2021/09/08 02:07:00;;;;;;;12.60;10.53;;;;;;;13.89;68.86;95926.75;6153442;23;20162;-83
2021/09/08 02:09:25;;;;;;;12.80;10.07;;;;;;;13.85;69.02;95923.63;6153542;23;20167;-83
2021/09/08 02:11:51;;;;;;;11.95;10.70;;;;;;;13.83;69.01;95922.97;6153619;23;20159;-83
2021/09/08 02:14:16;;;;;;;14.57;10.60;;;;;;;13.87;69.05;95913.06;6152808;23;20594;-83
2021/09/08 02:16:41;;;;;;;13.23;10.77;;;;;;;13.84;69.04;95914.16;6128689;23;20182;-83
2021/09/08 02:19:07;;;;;;;11.90;10.50;;;;;;;13.89;68.69;95917.13;6128390;23;20190;-83
2021/09/08 02:21:32;;;;;;;12.40;10.98;;;;;;;13.97;68.44;95913.72;6128785;23;20174;-82
2021/09/08 02:23:57;;;;;;;11.33;10.20;;;;;;;13.91;68.52;95911.75;6128092;23;20170;-83
2021/09/08 02:26:23;;;;;;;13.97;11.37;;;;;;;13.84;68.57;95910.75;6153505;23;20167;-83
2021/09/08 02:28:48;;;;;;;15.17;11.30;;;;;;;13.86;68.56;95909.59;6129027;23;20672;-83
2021/09/08 02:31:13;;;;;;;12.30;11.00;;;;;;;13.88;68.37;95909.47;6128205;23;20634;-83
2021/09/08 02:33:39;;;;;;;13.90;11.10;;;;;;;13.82;68.48;95912.69;6127489;23;20159;-83
2021/09/08 02:36:04;;;;;;;12.07;10.32;;;;;;;13.89;68.28;95909.28;6127773;23;20186;-83
2021/09/08 02:38:31;;;;;;;12.83;10.50;;;;;;;13.79;68.63;95907.81;6153503;23;20233;-83
2021/09/08 02:40:57;;;;;;;13.50;10.93;;;;;;;13.68;69.34;95906.28;6152831;23;20268;-83
2021/09/08 02:43:23;;;;;;;12.65;11.18;;;;;;;13.65;69.31;95903.19;6128177;23;20160;-83
2021/09/08 02:45:48;;;;;;;12.03;10.53;;;;;;;13.57;69.56;95899.56;6152237;23;20179;-83
2021/09/08 02:48:13;;;;;;;13.03;10.87;;;;;;;13.63;69.73;95899.91;6128155;23;20543;-84
2021/09/08 02:50:38;;;;;;;14.23;11.27;;;;;;;13.70;69.27;95896.53;6152630;23;20155;-83
2021/09/08 02:53:04;;;;;;;13.10;10.90;;;;;;;13.58;69.64;95889.94;6153297;23;20159;-83
2021/09/08 02:55:29;;;;;;;13.97;11.43;;;;;;;13.59;69.50;95892.38;6127254;23;20190;-82
2021/09/08 02:57:54;;;;;;;13.37;11.97;;;;;;;13.55;69.69;95883.25;6152479;23;20186;-82
2021/09/08 03:00:20;;;;;;;12.13;10.80;;;;;;;13.57;69.40;95886.50;6152760;23;20171;-82
2021/09/08 03:02:45;;;;;;;14.33;11.17;;;;;;;13.54;69.64;95878.19;6126539;23;20162;-82
2021/09/08 03:05:11;;;;;;;14.03;11.60;;;;;;;13.51;69.63;95878.50;6127469;23;20175;-82
2021/09/08 03:07:36;;;;;;;12.67;11.03;;;;;;;13.48;69.63;95881.41;6152619;23;20163;-83
2021/09/08 03:10:02;;;;;;;13.43;11.67;;;;;;;13.55;69.32;95880.63;6152777;23;20186;-82
2021/09/08 03:12:27;;;;;;;14.93;10.97;;;;;;;13.56;69.73;95882.28;6127715;23;20155;-82
2021/09/08 03:14:52;;;;;;;12.20;10.90;;;;;;;13.54;69.42;95884.22;6127397;23;20187;-83
2021/09/08 03:17:18;;;;;;;16.67;11.10;;;;;;;13.43;69.80;95878.44;6153212;23;20174;-83
2021/09/08 03:19:43;;;;;;;13.30;11.17;;;;;;;13.39;69.82;95879.75;6152400;23;20187;-82
2021/09/08 03:22:08;;;;;;;14.03;10.97;;;;;;;13.39;69.81;95866.72;6152535;23;20202;-84
2021/09/08 03:24:34;;;;;;;12.57;10.57;;;;;;;13.46;69.63;95875.56;6127389;23;20183;-85
2021/09/08 03:26:59;;;;;;;12.73;11.33;;;;;;;13.36;70.07;95870.47;6152697;23;20202;-81
2021/09/08 03:29:24;;;;;;;17.40;11.73;;;;;;;13.30;70.23;95864.06;6127672;23;20159;-84
2021/09/08 03:31:50;;;;;;;13.03;11.63;;;;;;;13.26;70.45;95865.38;6128027;23;20206;-84
2021/09/08 03:34:15;;;;;;;14.70;11.37;;;;;;;13.30;70.29;95869.28;6127034;23;20179;-84
2021/09/08 03:36:40;;;;;;;14.30;11.37;;;;;;;13.20;70.86;95865.97;6152834;23;20480;-84
2021/09/08 03:39:05;;;;;;;12.17;10.50;;;;;;;13.30;70.48;95861.47;6127631;23;20230;-84
2021/09/08 03:41:31;;;;;;;12.80;11.47;;;;;;;13.17;70.65;95860.25;6154180;23;20473;-84
2021/09/08 03:43:56;;;;;;;13.37;11.37;;;;;;;13.15;70.76;95860.38;6151793;23;20170;-84
2021/09/08 03:46:21;;;;;;;14.10;11.83;;;;;;;13.12;70.87;95865.91;6128329;23;20170;-84
2021/09/08 03:48:47;;;;;;;12.30;10.97;;;;;;;13.14;70.77;95861.34;6128116;23;20163;-84
2021/09/08 03:51:12;;;;;;;12.50;11.20;;;;;;;13.13;70.79;95859.72;6152374;23;20617;-84
2021/09/08 03:53:37;;;;;;;12.40;11.10;;;;;;;13.19;70.64;95861.75;6151602;23;20163;-83
2021/09/08 03:56:03;;;;;;;12.63;11.33;;;;;;;13.20;70.62;95859.94;6127310;23;20186;-84
2021/09/08 03:58:28;;;;;;;13.97;11.07;;;;;;;13.13;70.90;95856.28;6152660;23;20155;-84
2021/09/08 04:00:53;;;;;;;13.67;11.87;;;;;;;13.07;71.05;95856.91;6127883;23;20233;-84
2021/09/08 04:03:19;;;;;;;14.43;11.23;;;;;;;13.06;71.13;95853.47;6126192;23;20163;-84
2021/09/08 04:05:44;;;;;;;13.47;12.10;;;;;;;12.98;71.37;95848.22;6151663;23;20613;-85
2021/09/08 04:08:09;;;;;;;13.60;11.70;;;;;;;13.00;71.39;95846.31;6127703;23;20166;-84
2021/09/08 04:10:35;;;;;;;13.60;12.17;;;;;;;12.94;71.85;95847.72;6152253;23;20136;-84
2021/09/08 04:13:00;;;;;;;14.63;12.63;;;;;;;12.94;71.54;95839.09;6152362;23;20176;-84
2021/09/08 04:15:25;;;;;;;13.97;11.47;;;;;;;12.99;71.76;95848.09;6152143;23;20177;-85
2021/09/08 04:17:51;;;;;;;13.97;11.80;;;;;;;12.92;71.67;95846.25;6151513;23;20163;-82
2021/09/08 04:20:16;;;;;;;14.60;12.60;;;;;;;12.87;71.84;95838.06;6128881;23;20202;-85
2021/09/08 04:22:41;;;;;;;14.37;12.80;;;;;;;12.97;71.70;95836.16;6128897;23;20491;-82
2021/09/08 04:25:07;;;;;;;14.77;13.20;;;;;;;12.90;71.96;95835.19;6128552;23;20845;-84
2021/09/08 04:27:33;;;;;;;15.83;12.27;;;;;;;13.02;71.71;95831.31;6153666;23;20603;-84
2021/09/08 04:29:58;;;;;;;14.83;11.70;;;;;;;12.99;71.72;95831.63;6127569;23;20476;-85
2021/09/08 04:32:23;;;;;;;16.80;12.60;;;;;;;12.90;71.95;95829.97;6152387;23;20167;-81
2021/09/08 04:34:48;;;;;;;14.73;11.83;;;;;;;12.98;71.85;95830.78;6151013;23;20171;-84
2021/09/08 04:37:14;;;;;;;14.33;12.30;;;;;;;12.97;71.76;95828.34;6154006;23;20155;-83
2021/09/08 04:39:39;;;;;;;14.73;12.70;;;;;;;12.94;71.92;95834.69;6153502;23;20178;-84
2021/09/08 04:42:04;;;;;;;16.63;12.23;;;;;;;12.91;71.99;95831.59;6153124;23;20241;-84
2021/09/08 04:44:30;;;;;;;13.90;12.40;;;;;;;12.91;72.01;95831.59;6128105;23;20298;-84
2021/09/08 04:46:55;;;;;;;14.37;12.80;;;;;;;12.92;72.17;95830.63;6153721;23;20699;-84
2021/09/08 04:49:21;;;;;;;14.10;11.70;;;;;;;12.92;72.30;95828.00;6153281;23;20151;-84
2021/09/08 04:51:46;;;;;;;15.90;12.07;;;;;;;12.91;72.31;95832.41;6154416;23;20155;-83
2021/09/08 04:54:14;;;;;;;15.33;12.83;;;;;;;12.98;72.22;95836.00;6153738;23;20186;-84
2021/09/08 04:56:39;;;;;;;18.90;14.27;;;;;;;12.93;72.25;95834.84;6129972;23;20202;-83
2021/09/08 04:59:05;;;;;;;15.63;13.13;;;;;;;12.92;72.13;95833.22;6128502;23;20183;-85
2021/09/08 05:01:30;;;;;;;13.80;12.40;;;;;;;13.07;71.89;95836.88;6129709;23;20163;-83
2021/09/08 05:03:55;;;;;;;15.77;12.77;;;;;;;13.02;71.60;95842.56;6152981;23;20162;-83
2021/09/08 05:06:21;;;;;;;16.60;13.03;;;;;;;13.10;71.66;95841.78;6154009;23;20215;-85
2021/09/08 05:08:46;;;;;;;18.30;14.27;;;;;;;13.12;71.47;95841.63;6129117;23;20159;-87
2021/09/08 05:11:12;;;;;;;17.93;14.33;;;;;;;13.20;71.12;95834.69;6155060;23;20601;-86
2021/09/08 05:13:38;;;;;;;16.27;14.53;;;;;;;13.24;70.56;95830.78;6128074;23;20547;-82
2021/09/08 05:16:03;;;;;;;18.00;13.37;;;;;;;13.26;70.33;95838.47;6129235;23;20194;-82
2021/09/08 05:18:28;;;;;;;15.70;13.53;;;;;;;13.28;70.35;95834.72;6129319;23;20506;-82
2021/09/08 05:20:54;;;;;;;15.80;13.80;;;;;;;13.29;70.34;95830.31;6155280;23;20175;-82
2021/09/08 05:23:19;;;;;;;14.30;12.00;;;;;;;13.30;70.39;95832.78;6130181;23;20183;-82
2021/09/08 05:25:44;;;;;;;14.13;12.63;;;;;;;13.36;69.77;95830.53;6130011;23;20687;-83
2021/09/08 05:28:11;;;;;;;13.80;11.77;;;;;;;13.39;69.60;95830.19;6130703;23;20162;-84
2021/09/08 05:30:36;;;;;;;15.70;12.30;;;;;;;13.49;69.38;95838.69;6156342;23;20187;-81
2021/09/08 05:33:02;;;;;;;14.60;12.40;;;;;;;13.54;68.97;95831.22;6157308;23;20464;-80
2021/09/08 05:35:27;;;;;;;14.83;11.60;;;;;;;13.54;68.87;95834.66;6157044;23;20176;-83
2021/09/08 05:37:52;;;;;;;14.77;11.57;;;;;;;13.56;68.64;95835.31;6159522;23;20155;-84
2021/09/08 05:40:18;;;;;;;13.50;11.23;;;;;;;13.65;68.36;95833.53;6132549;23;20234;-84
2021/09/08 05:42:43;;;;;;;16.03;11.40;;;;;;;13.76;68.05;95840.25;6129931;23;20209;-81
2021/09/08 05:45:09;;;;;;;15.50;11.53;;;;;;;13.80;67.87;95834.56;6153786;23;20175;-81
2021/09/08 05:47:34;;;;;;;12.27;10.97;;;;;;;13.82;67.98;95835.19;6158769;23;20560;-80
2021/09/08 05:49:59;;;;;;;13.03;11.63;;;;;;;13.92;67.54;95837.66;6166429;23;20167;-81
2021/09/08 05:52:25;;;;;;;12.43;10.37;;;;;;;13.96;67.38;95839.00;6161265;23;20164;-81
2021/09/08 05:54:50;;;;;;;13.83;10.83;;;;;;;14.05;67.00;95834.59;6132043;23;20645;-81
2021/09/08 05:57:15;;;;;;;15.90;10.90;;;;;;;14.10;66.97;95830.50;6131410;23;20156;-81
2021/09/08 05:59:40;;;;;;;12.50;10.67;;;;;;;14.14;66.58;95838.84;6156049;23;20178;-80
2021/09/08 06:02:06;;;;;;;12.97;10.30;;;;;;;14.25;65.88;95829.88;6155560;23;20227;-80
2021/09/08 06:04:31;;;;;;;13.43;10.23;;;;;;;14.26;65.85;95840.16;6130297;23;20563;-80
2021/09/08 06:06:58;;;;;;;13.03;10.80;;;;;;;14.40;65.44;95844.72;6130945;23;20187;-79
2021/09/08 06:09:24;;;;;;;12.07;10.10;;;;;;;14.50;65.45;95841.16;6131312;23;20156;-79
2021/09/08 06:11:49;;;;;;;13.53;10.93;;;;;;;14.49;65.49;95837.72;6130587;23;20166;-79
2021/09/08 06:14:14;;;;;;;12.50;10.00;;;;;;;14.52;65.43;95839.19;6130001;23;20266;-79
2021/09/08 06:16:40;;;;;;;11.70;10.25;;;;;;;14.64;65.20;95840.47;6155361;23;20187;-79
2021/09/08 06:19:05;;;;;;;13.17;11.23;;;;;;;14.64;65.19;95838.69;6154984;23;20183;-78
2021/09/08 06:21:31;;;;;;;11.67;10.07;;;;;;;14.72;64.96;95837.84;6130525;23;20545;-78
2021/09/08 06:23:56;;;;;;;12.70;10.37;;;;;;;14.88;64.36;95840.44;6153317;23;20196;-79
2021/09/08 06:26:23;;;;;;;13.23;9.90;;;;;;;14.90;64.32;95846.31;6154427;23;20635;-80
2021/09/08 06:28:49;;;;;;;13.07;10.45;;;;;;;14.89;65.04;95839.47;6154251;23;20162;-79
2021/09/08 06:31:14;;;;;;;11.20;9.63;;;;;;;14.96;64.07;95837.00;6155158;23;20163;-80
2021/09/08 06:33:39;;;;;;;15.83;10.03;;;;;;;15.01;63.99;95838.09;6153575;23;20159;-79
2021/09/08 06:36:05;;;;;;;11.63;9.43;;;;;;;15.03;64.65;95830.13;6155778;23;20182;-79
2021/09/08 06:38:30;;;;;;;12.13;10.18;;;;;;;15.16;64.04;95834.81;6156727;23;20162;-80
2021/09/08 06:40:58;;;;;;;14.35;10.13;;;;;;;15.19;64.16;95837.06;6154950;23;20209;-78
2021/09/08 06:43:24;;;;;;;11.13;9.38;;;;;;;15.28;63.75;95829.06;6131022;23;20178;-80
2021/09/08 06:45:49;;;;;;;12.88;9.80;;;;;;;15.32;63.84;95831.31;6155083;23;20175;-79
2021/09/08 06:48:14;;;;;;;12.10;9.50;;;;;;;15.33;63.75;95830.34;6128464;23;20170;-80
2021/09/08 06:50:40;;;;;;;14.45;10.02;;;;;;;15.63;62.95;95828.75;6155255;23;20251;-79
2021/09/08 06:53:05;;;;;;;14.05;10.30;;;;;;;15.72;62.71;95828.53;6130358;23;20170;-78
2021/09/08 06:55:30;;;;;;;12.00;10.30;;;;;;;15.78;62.85;95824.41;6154306;23;20187;-79
2021/09/08 06:57:56;;;;;;;12.60;9.80;;;;;;;15.99;62.36;95816.75;6156042;23;20604;-78
2021/09/08 07:00:21;;;;;;;12.32;10.13;;;;;;;15.98;62.10;95820.34;6156882;23;20176;-79
2021/09/08 07:02:46;;;;;;;13.60;9.13;;;;;;;16.17;61.50;95813.00;6155337;23;20202;-80
2021/09/08 07:05:12;;;;;;;11.50;9.77;;;;;;;16.27;61.73;95813.59;6129544;23;20183;-80
2021/09/08 07:07:37;;;;;;;13.32;10.32;;;;;;;16.26;61.05;95814.59;6155673;23;20159;-80
2021/09/08 07:10:03;;;;;;;12.43;10.00;;;;;;;16.34;61.37;95809.25;6155990;23;20151;-80
2021/09/08 07:12:28;;;;;;;13.73;9.80;;;;;;;16.34;61.32;95810.09;6130621;23;20162;-80
2021/09/08 07:14:53;;;;;;;12.30;9.65;;;;;;;16.41;60.93;95811.00;6155679;23;20568;-78
2021/09/08 07:17:18;;;;;;;15.07;10.68;;;;;;;16.51;60.86;95804.69;6132172;23;20167;-80
2021/09/08 07:19:44;;;;;;;13.45;10.02;;;;;;;16.59;60.82;95812.50;6130848;23;20703;-80
2021/09/08 07:22:09;;;;;;;10.07;9.07;;;;;;;16.65;60.09;95809.16;6156248;23;20632;-80
2021/09/08 07:24:34;;;;;;;11.07;9.55;;;;;;;16.64;60.21;95810.97;6129573;23;20183;-79
2021/09/08 07:27:00;;;;;;;11.27;8.95;;;;;;;16.68;59.97;95811.41;6130011;23;20155;-79
2021/09/08 07:29:25;;;;;;;14.05;9.65;;;;;;;16.74;60.05;95815.19;6154308;23;20151;-78
2021/09/08 07:31:51;;;;;;;12.25;9.65;;;;;;;16.81;59.69;95810.84;6153109;23;20156;-78
2021/09/08 07:34:17;;;;;;;12.77;10.25;;;;;;;16.86;59.56;95811.91;6152480;23;20178;-82
2021/09/08 07:36:42;;;;;;;11.43;9.85;;;;;;;17.06;58.28;95814.03;6155780;23;20147;-80
2021/09/08 07:39:07;;;;;;;10.90;9.35;;;;;;;17.02;58.52;95810.13;6155588;23;20237;-81
2021/09/08 07:41:33;;;;;;;12.77;9.20;;;;;;;17.12;57.57;95808.84;6155099;23;20178;-78
2021/09/08 07:43:58;;;;;;;11.23;9.07;;;;;;;17.19;57.62;95809.75;6130400;23;20162;-79
2021/09/08 07:46:24;;;;;;;12.35;9.73;;;;;;;17.16;57.43;95807.50;6156497;23;20167;-82
2021/09/08 07:48:49;;;;;;;11.05;9.35;;;;;;;17.32;57.31;95810.94;6129664;23;20602;-79
2021/09/08 07:51:15;;;;;;;13.82;10.57;;;;;;;17.32;57.17;95811.75;6153361;23;20486;-77
2021/09/08 07:53:40;;;;;;;12.50;9.77;;;;;;;17.41;57.19;95804.59;6126972;23;20162;-78
2021/09/08 07:56:05;;;;;;;10.80;8.60;;;;;;;17.58;56.90;95806.00;6152031;23;20209;-77
2021/09/08 07:58:31;;;;;;;12.18;9.20;;;;;;;17.63;55.94;95805.44;6128079;23;20598;-78
2021/09/08 08:00:57;;;;;;;12.77;8.70;;;;;;;17.70;54.28;95801.94;6152400;23;20570;-78
2021/09/08 08:03:22;;;;;;;10.48;9.02;;;;;;;17.65;53.74;95809.50;6152895;23;20163;-77
2021/09/08 08:05:48;;;;;;;9.55;8.55;;;;;;;17.73;53.43;95801.53;6152731;23;20202;-78
2021/09/08 08:08:13;;;;;;;10.23;8.60;;;;;;;17.80;53.90;95797.19;6128697;23;20567;-78
2021/09/08 08:10:39;;;;;;;9.75;8.75;;;;;;;17.82;53.74;95795.16;6154106;23;20540;-77
2021/09/08 08:13:04;;;;;;;10.25;8.32;;;;;;;17.90;53.84;95794.25;6152982;23;20167;-79
2021/09/08 08:15:29;;;;;;;9.43;8.40;;;;;;;17.98;51.84;95788.06;6154334;23;20503;-79
2021/09/08 08:17:55;;;;;;;10.88;8.32;;;;;;;17.99;51.13;95792.31;6154255;23;20605;-78
2021/09/08 08:20:20;;;;;;;12.05;8.77;;;;;;;18.02;52.25;95792.78;6129778;23;20175;-78
2021/09/08 08:22:47;;;;;;;10.93;8.50;;;;;;;18.13;51.69;95786.19;6155707;23;20162;-78
2021/09/08 08:25:15;;;;;;;9.85;8.57;;;;;;;18.20;51.90;95789.69;6153144;23;20175;-78
2021/09/08 08:27:40;;;;;;;9.93;7.47;;;;;;;18.26;50.35;95788.09;6153877;23;20497;-78
2021/09/08 08:30:07;;;;;;;13.07;8.43;;;;;;;18.27;50.37;95787.09;6153190;23;20155;-77
2021/09/08 08:32:32;;;;;;;10.10;7.70;;;;;;;18.38;51.72;95790.06;6152063;23;20167;-77
2021/09/08 08:34:57;;;;;;;10.35;8.07;;;;;;;18.48;51.68;95794.16;6151683;23;20201;-77
2021/09/08 08:37:23;;;;;;;13.05;8.77;;;;;;;18.57;51.05;95788.56;6153680;23;20539;-79
2021/09/08 08:39:48;;;;;;;12.95;8.95;;;;;;;18.63;50.73;95786.97;6153437;23;20672;-79
2021/09/08 08:42:27;;;;;;;10.50;8.70;;;;;;;18.79;51.59;95781.47;6152624;23;20226;-78
2021/09/08 08:44:53;;;;;;;12.27;8.30;;;;;;;18.87;51.74;95783.94;6153703;23;20182;-80
2021/09/08 08:47:18;;;;;;;11.25;8.70;;;;;;;18.93;50.86;95777.91;6172559;23;20127;-81
2021/09/08 08:49:45;;;;;;;9.60;8.48;;;;;;;18.95;51.01;95775.91;6169727;23;20222;-80
2021/09/08 08:52:11;;;;;;;9.38;7.97;;;;;;;19.15;50.52;95780.44;6136265;23;20165;-78
2021/09/08 08:54:37;;;;;;;11.27;7.75;;;;;;;19.20;49.44;95778.88;6154687;23;20190;-78
2021/09/08 08:57:03;;;;;;;12.70;8.23;;;;;;;19.20;48.31;95778.06;6157056;23;20229;-79
2021/09/08 08:59:28;;;;;;;8.70;7.57;;;;;;;19.22;48.20;95776.03;6131600;23;20219;-82
2021/09/08 09:01:53;;;;;;;8.90;8.00;;;;;;;19.41;48.52;95774.50;6155180;23;20226;-80
2021/09/08 09:04:19;;;;;;;10.18;8.30;;;;;;;19.55;47.96;95770.91;6153523;23;20171;-79
2021/09/08 09:06:49;;;;;;;9.77;7.85;;;;;;;19.57;48.72;95768.91;6153690;23;20155;-79
2021/09/08 09:09:17;;;;;;;9.52;7.70;;;;;;;19.63;47.00;95760.22;6128232;23;20175;-78
2021/09/08 09:11:45;;;;;;;8.80;7.78;;;;;;;19.74;46.88;95764.91;6131935;23;20152;-80
2021/09/08 09:14:12;;;;;;;10.65;8.05;;;;;;;19.82;48.06;95768.38;6130137;23;20159;-80
2021/09/08 09:16:39;;;;;;;8.52;7.57;;;;;;;19.94;47.80;95767.56;6131468;23;20159;-81
2021/09/08 09:19:06;;;;;;;9.27;8.00;;;;;;;20.00;47.01;95758.06;6131797;23;20672;-81
2021/09/08 09:21:31;;;;;;;9.65;7.45;;;;;;;19.94;46.98;95769.41;6131577;23;20214;-80
2021/09/08 09:24:00;;;;;;;9.52;7.63;;;;;;;19.92;48.54;95761.69;6130415;23;20561;-80
2021/09/08 09:26:26;;;;;;;9.27;7.55;;;;;;;19.92;46.87;95761.69;6155236;23;20589;-80
2021/09/08 09:28:53;;;;;;;12.15;8.75;;;;;;;20.03;46.99;95755.81;6131889;23;20177;-78
2021/09/08 09:31:21;;;;;;;9.48;7.93;;;;;;;20.09;46.32;95749.75;6161028;23;20533;-81
2021/09/08 09:33:53;;;;;;;8.43;7.47;;;;;;;20.15;46.67;95745.50;6167652;23;20221;-81
2021/09/08 09:36:20;;;;;;;9.55;7.70;;;;;;;20.18;47.58;95745.09;6143522;23;20151;-80
2021/09/08 09:38:49;;;;;;;7.68;6.82;;;;;;;20.34;47.15;95749.97;6143153;23;20159;-78
2021/09/08 09:41:27;;;;;;;9.38;7.20;;;;;;;20.45;46.66;95745.94;6143477;23;20242;-79
2021/09/08 09:43:52;;;;;;;11.85;7.22;;;;;;;20.24;45.72;95746.94;6168370;23;20173;-79
2021/09/08 09:46:18;;;;;;;10.88;7.57;;;;;;;20.42;45.13;95738.41;6169562;23;20163;-79
2021/09/08 09:48:43;;;;;;;7.65;6.82;;;;;;;20.38;45.50;95740.63;6144917;23;20165;-78
2021/09/08 09:51:11;;;;;;;6.90;6.20;;;;;;;20.50;43.76;95738.22;6168668;23;20621;-80
2021/09/08 09:53:36;;;;;;;7.80;6.50;;;;;;;20.56;45.21;95744.50;6141004;23;20264;-79
2021/09/08 09:56:02;;;;;;;10.00;6.72;;;;;;;20.64;44.47;95741.66;6169348;23;20258;-81
2021/09/08 09:58:27;;;;;;;11.05;6.90;;;;;;;20.83;42.91;95734.72;6144040;23;20191;-80
2021/09/08 10:00:53;;;;;;;7.80;7.00;;;;;;;20.68;44.99;95737.59;6144228;23;20179;-79
2021/09/08 10:03:19;;;;;;;10.10;6.93;;;;;;;20.88;43.93;95734.91;6166991;23;20159;-81
2021/09/08 10:05:45;;;;;;;7.38;6.68;;;;;;;20.94;42.81;95723.53;6166680;23;20258;-78
2021/09/08 10:08:12;;;;;;;7.65;6.57;;;;;;;21.09;43.65;95725.91;6142589;23;20166;-78
2021/09/08 10:10:40;;;;;;;8.82;6.43;;;;;;;21.17;43.72;95726.47;6164040;23;20158;-80
2021/09/08 10:13:11;;;;;;;9.10;7.45;;;;;;;21.04;43.97;95723.91;6158775;23;20155;-79
2021/09/08 10:15:36;;;;;;;7.63;6.82;;;;;;;21.16;43.82;95729.34;6133389;23;20179;-79
2021/09/08 10:18:06;;;;;;;7.97;7.10;;;;;;;21.24;43.43;95723.00;6137351;23;20186;-80
2021/09/08 10:20:32;;;;;;;11.82;7.40;;;;;;;21.36;44.04;95721.34;6167059;23;20267;-80
2021/09/08 10:23:06;;;;;;;8.95;6.90;;;;;;;21.37;43.07;95709.75;6144743;23;20418;-78
2021/09/08 10:25:31;;;;;;;11.07;6.90;;;;;;;21.40;43.77;95712.00;6141194;23;20253;-80
2021/09/08 10:27:56;;;;;;;7.82;6.68;;;;;;;21.45;43.80;95710.34;6166790;23;20175;-81
2021/09/08 10:30:26;;;;;;;10.32;7.18;;;;;;;21.48;44.08;95711.75;6141742;23;20155;-78
2021/09/08 10:32:52;;;;;;;9.07;7.32;;;;;;;21.43;42.93;95706.28;6168395;23;20532;-80
2021/09/08 10:35:19;;;;;;;8.23;6.85;;;;;;;21.37;43.90;95700.00;6174593;23;20175;-78
2021/09/08 10:37:54;;;;;;;8.68;6.72;;;;;;;21.44;43.88;95708.72;6149464;23;20167;-79
2021/09/08 10:40:21;;;;;;;9.18;7.40;;;;;;;21.50;44.47;95701.78;6148342;23;20178;-81
2021/09/08 10:42:51;;;;;;;8.73;7.40;;;;;;;21.57;44.33;95697.28;6176223;23;20183;-79
2021/09/08 10:45:18;;;;;;;11.18;7.55;;;;;;;21.67;44.22;95700.25;6178235;23;20730;-80
2021/09/08 10:47:43;;;;;;;9.38;7.43;;;;;;;21.49;45.34;95689.59;6150260;23;20187;-78
2021/09/08 10:50:09;;;;;;;9.52;7.38;;;;;;;21.60;44.31;95691.56;6174617;23;20206;-78
2021/09/08 10:52:35;;;;;;;7.75;7.05;;;;;;;21.63;43.87;95691.13;6174071;23;20151;-79
2021/09/08 10:55:00;;;;;;;10.20;8.00;;;;;;;21.72;43.79;95686.41;6170943;23;20194;-79
2021/09/08 10:57:41;;;;;;;8.40;7.50;;;;;;;21.70;44.27;95685.81;6173258;23;20170;-80
2021/09/08 11:00:11;;;;;;;8.43;7.22;;;;;;;21.78;44.16;95680.25;6172267;23;20182;-80
2021/09/08 11:02:38;;;;;;;11.18;7.20;;;;;;;21.89;44.35;95676.91;6175217;23;20159;-79
2021/09/08 11:05:04;;;;;;;9.68;6.88;;;;;;;21.85;44.61;95677.59;6150724;23;20189;-79
2021/09/08 11:07:30;;;;;;;9.00;7.22;;;;;;;22.01;43.81;95677.06;6155345;23;20151;-78
2021/09/08 11:09:56;;;;;;;9.88;7.22;;;;;;;22.09;43.54;95676.81;6153190;23;20215;-76
2021/09/08 11:12:21;;;;;;;8.18;7.38;;;;;;;22.12;42.57;95678.22;6175923;23;20175;-75
2021/09/08 11:14:51;;;;;;;9.60;7.75;;;;;;;22.15;43.24;95673.28;6173681;23;20232;-77